Time;durP1;ratioP1;P1;durP2;ratioP2;P2;SDS_P1;SDS_P2;PMS_P1;PMS_P2;Temp;Humidity;BMP_temperature;BMP_pressure;BME280_temperature;BME280_humidity;BME280_pressure;Samples;Min_cycle;Max_cycle;Signal;HPM_P1;HPM_P2
2023/10/15 00:01:50;;;;;;;7.23;4.90;;;7.80;99.90;;;;;;5014739;28;20183;-70
2023/10/15 00:04:16;;;;;;;7.57;4.90;;;7.70;99.90;;;;;;5031212;28;20180;-70
2023/10/15 00:06:41;;;;;;;5.97;5.17;;;7.70;99.90;;;;;;5034588;28;20210;-70
2023/10/15 00:09:07;;;;;;;10.73;4.50;;;7.70;99.90;;;;;;5024456;28;20555;-70
2023/10/15 00:11:33;;;;;;;7.80;4.90;;;7.60;99.90;;;;;;5015497;28;20254;-69
2023/10/15 00:13:59;;;;;;;10.87;5.00;;;7.60;99.90;;;;;;5014909;28;20188;-69
2023/10/15 00:16:26;;;;;;;10.27;4.40;;;7.60;99.90;;;;;;5014948;28;20176;-70
2023/10/15 00:18:51;;;;;;;10.33;4.77;;;7.60;99.90;;;;;;5014795;28;20594;-70
2023/10/15 00:21:17;;;;;;;7.83;4.80;;;7.60;99.90;;;;;;5015731;28;20447;-70
2023/10/15 00:23:44;;;;;;;12.73;5.00;;;7.50;99.90;;;;;;5027969;28;20218;-69
2023/10/15 00:26:14;;;;;;;14.50;5.07;;;7.50;99.90;;;;;;5020752;28;20247;-69
2023/10/15 00:28:45;;;;;;;8.87;4.70;;;7.50;99.90;;;;;;5014386;28;20208;-70
2023/10/15 00:31:14;;;;;;;7.63;4.60;;;7.50;99.90;;;;;;5014428;28;20207;-70
2023/10/15 00:33:46;;;;;;;8.17;5.00;;;7.40;99.90;;;;;;5014175;28;20177;-70
2023/10/15 00:36:15;;;;;;;8.90;5.03;;;7.40;99.90;;;;;;5013533;28;20234;-71
2023/10/15 00:38:43;;;;;;;10.67;5.07;;;7.40;99.90;;;;;;5032186;28;20548;-70
2023/10/15 00:41:13;;;;;;;6.53;4.93;;;7.40;99.90;;;;;;5032745;28;20211;-70
2023/10/15 00:43:54;;;;;;;11.20;5.10;;;7.40;99.90;;;;;;5031900;28;20204;-69
2023/10/15 00:46:26;;;;;;;7.47;4.90;;;7.40;99.90;;;;;;5015742;28;20195;-69
2023/10/15 00:48:56;;;;;;;6.33;5.00;;;7.40;99.90;;;;;;5040479;28;20198;-69
2023/10/15 00:51:22;;;;;;;7.77;4.70;;;7.30;99.90;;;;;;5053807;28;20582;-70
2023/10/15 00:53:58;;;;;;;7.83;5.53;;;7.30;99.90;;;;;;5038588;28;20572;-70
2023/10/15 00:56:33;;;;;;;7.50;4.87;;;7.30;99.90;;;;;;5032719;28;20785;-69
2023/10/15 01:01:34;;;;;;;6.03;5.13;;;7.30;99.90;;;;;;5033721;28;20179;-69
2023/10/15 01:04:01;;;;;;;10.40;5.13;;;7.30;99.90;;;;;;5033650;28;20278;-70
2023/10/15 01:06:35;;;;;;;6.30;5.30;;;7.20;99.90;;;;;;5052167;28;20198;-70
2023/10/15 01:09:09;;;;;;;8.60;5.00;;;7.20;99.90;;;;;;5053705;28;20194;-70
2023/10/15 01:11:38;;;;;;;5.17;4.67;;;7.20;99.90;;;;;;5053531;28;20254;-69
2023/10/15 01:14:04;;;;;;;8.80;4.87;;;7.20;99.90;;;;;;5053440;28;20174;-69
2023/10/15 01:16:35;;;;;;;7.30;4.87;;;7.20;99.90;;;;;;5053455;28;20175;-70
2023/10/15 01:19:20;;;;;;;6.03;5.20;;;7.20;99.90;;;;;;5053510;28;20193;-69
2023/10/15 01:24:20;;;;;;;8.23;4.93;;;7.20;99.90;;;;;;5021098;28;20651;-69
2023/10/15 01:27:27;;;;;;;9.37;5.23;;;7.20;99.90;;;;;;5025488;28;20721;-69
2023/10/15 01:29:44;;;;;;;8.37;5.00;;;7.20;99.90;;;;;;5013176;28;20240;-69
2023/10/15 01:32:11;;;;;;;7.60;5.37;;;7.20;99.90;;;;;;5013681;28;20176;-69
2023/10/15 01:34:37;;;;;;;8.33;5.40;;;7.20;99.90;;;;;;5012851;28;20172;-69
2023/10/15 01:37:15;;;;;;;6.13;4.90;;;7.20;99.90;;;;;;5015151;28;20175;-69
2023/10/15 01:39:46;;;;;;;6.90;4.93;;;7.20;99.90;;;;;;5029780;28;20614;-68
2023/10/15 01:42:31;;;;;;;10.30;5.70;;;7.20;99.90;;;;;;5022518;28;20175;-69
2023/10/15 01:45:30;;;;;;;7.27;5.67;;;7.20;99.90;;;;;;5013116;28;20245;-69
2023/10/15 01:50:16;;;;;;;6.23;4.67;;;7.20;99.90;;;;;;5021001;28;20218;-70
2023/10/15 01:52:44;;;;;;;6.57;5.20;;;7.20;99.90;;;;;;5012885;28;20164;-69
2023/10/15 01:55:12;;;;;;;7.23;4.87;;;7.20;99.90;;;;;;5011630;28;20220;-69
2023/10/15 01:57:39;;;;;;;7.77;4.80;;;7.20;99.90;;;;;;5012945;28;20528;-69
2023/10/15 02:00:32;;;;;;;7.10;4.93;;;7.20;99.90;;;;;;5030276;28;20279;-70
2023/10/15 02:02:58;;;;;;;7.03;4.67;;;7.20;99.90;;;;;;5030489;28;20187;-70
2023/10/15 02:05:40;;;;;;;11.40;5.13;;;7.20;99.90;;;;;;5012537;28;20674;-69
2023/10/15 02:08:12;;;;;;;11.10;6.07;;;7.20;99.90;;;;;;5012349;28;20621;-69
2023/10/15 02:10:39;;;;;;;11.20;5.23;;;7.20;99.90;;;;;;5010738;28;20694;-70
2023/10/15 02:13:08;;;;;;;10.93;4.87;;;7.20;99.90;;;;;;5012540;28;20183;-69
2023/10/15 02:15:38;;;;;;;7.63;5.50;;;7.20;99.90;;;;;;5029262;28;20221;-69
2023/10/15 02:18:05;;;;;;;7.77;4.93;;;7.20;99.90;;;;;;5021051;28;20714;-70
2023/10/15 02:23:21;;;;;;;11.27;5.77;;;7.20;99.90;;;;;;5013448;28;20234;-69
2023/10/15 02:25:52;;;;;;;9.77;4.83;;;7.20;99.90;;;;;;5016266;28;20179;-70
2023/10/15 02:28:25;;;;;;;12.87;5.50;;;7.20;99.90;;;;;;5029233;28;20194;-69
2023/10/15 02:33:36;;;;;;;8.87;4.83;;;7.30;99.90;;;;;;5026222;28;20187;-69
2023/10/15 02:36:06;;;;;;;6.70;4.93;;;7.30;99.90;;;;;;5011151;28;20176;-69
2023/10/15 02:38:36;;;;;;;12.00;5.50;;;7.40;99.90;;;;;;5023690;28;20559;-69
2023/10/15 02:43:29;;;;;;;10.17;5.50;;;7.40;99.90;;;;;;5029387;28;20230;-70
2023/10/15 02:46:00;;;;;;;8.10;4.90;;;7.40;99.90;;;;;;5015849;28;20191;-70
2023/10/15 02:48:26;;;;;;;8.93;6.20;;;7.50;99.90;;;;;;5019798;28;20535;-69
2023/10/15 02:51:07;;;;;;;8.97;5.03;;;7.50;99.90;;;;;;5032023;28;20223;-69
2023/10/15 02:53:34;;;;;;;9.27;5.53;;;7.50;99.90;;;;;;5035941;28;20257;-70
2023/10/15 02:56:00;;;;;;;10.57;5.73;;;7.60;99.90;;;;;;5052236;28;20167;-69
2023/10/15 02:58:29;;;;;;;13.67;5.40;;;7.60;99.90;;;;;;5050473;28;20262;-69
2023/10/15 03:00:59;;;;;;;11.33;5.43;;;7.70;99.90;;;;;;5051725;28;20214;-70
2023/10/15 03:03:33;;;;;;;9.03;5.60;;;7.70;99.90;;;;;;5051758;28;20170;-70
2023/10/15 03:06:00;;;;;;;12.50;6.83;;;7.80;99.90;;;;;;5045227;28;20607;-70
2023/10/15 03:08:31;;;;;;;9.40;7.07;;;7.80;99.90;;;;;;5031762;28;20254;-69
2023/10/15 03:11:14;;;;;;;15.63;7.50;;;7.80;99.90;;;;;;5030559;28;20250;-69
2023/10/15 03:13:55;;;;;;;13.33;8.10;;;7.80;99.90;;;;;;5031306;28;20174;-69
2023/10/15 03:16:22;;;;;;;13.50;7.77;;;7.80;99.90;;;;;;5030079;28;20183;-69
2023/10/15 03:18:48;;;;;;;16.40;8.30;;;7.80;99.90;;;;;;5031507;28;20215;-69
2023/10/15 03:21:25;;;;;;;11.73;7.60;;;7.90;99.90;;;;;;5016049;28;20216;-68
2023/10/15 03:23:57;;;;;;;11.33;8.43;;;7.90;99.90;;;;;;5011611;28;20241;-70
2023/10/15 03:26:34;;;;;;;9.90;8.37;;;7.90;99.90;;;;;;5011592;28;20571;-70
2023/10/15 03:29:13;;;;;;;15.33;8.33;;;7.90;99.90;;;;;;5023896;28;20190;-69
2023/10/15 03:31:45;;;;;;;11.77;7.17;;;8.00;99.90;;;;;;5027851;28;20175;-69
2023/10/15 03:37:12;;;;;;;13.00;7.50;;;8.00;99.90;;;;;;5031417;28;20179;-69
2023/10/15 03:42:00;;;;;;;7.57;6.47;;;8.10;99.90;;;;;;5031466;28;20253;-70
2023/10/15 03:44:32;;;;;;;12.73;6.93;;;8.10;99.90;;;;;;5025967;28;20675;-69
2023/10/15 03:47:04;;;;;;;9.77;6.80;;;8.10;99.90;;;;;;5011641;28;20243;-70
2023/10/15 03:49:32;;;;;;;8.33;6.20;;;8.10;99.90;;;;;;5011371;28;20203;-70
2023/10/15 03:51:58;;;;;;;8.00;6.20;;;8.10;99.90;;;;;;5013116;28;20184;-69
2023/10/15 03:54:24;;;;;;;11.43;5.87;;;8.10;99.90;;;;;;5030637;28;20254;-70
2023/10/15 03:56:51;;;;;;;11.37;6.17;;;8.10;99.90;;;;;;5029927;28;20187;-69
2023/10/15 03:59:19;;;;;;;5.90;5.40;;;8.10;99.90;;;;;;5020749;28;20271;-69
2023/10/15 04:01:48;;;;;;;7.10;5.33;;;8.10;99.90;;;;;;5017029;28;20184;-69
2023/10/15 04:04:16;;;;;;;7.27;5.50;;;8.20;99.90;;;;;;5030786;28;20357;-70
2023/10/15 04:06:45;;;;;;;10.20;4.97;;;8.20;99.90;;;;;;5031239;28;20235;-70
2023/10/15 04:09:13;;;;;;;8.77;5.77;;;8.20;99.90;;;;;;5029686;28;20190;-70
2023/10/15 04:11:47;;;;;;;10.23;5.90;;;8.20;99.90;;;;;;5031077;28;20176;-69
2023/10/15 04:14:18;;;;;;;8.77;5.30;;;8.20;99.90;;;;;;5014702;28;20667;-70
2023/10/15 04:16:44;;;;;;;9.47;4.53;;;8.20;99.90;;;;;;5011281;28;20176;-69
2023/10/15 04:19:10;;;;;;;11.97;5.47;;;8.30;99.90;;;;;;5026891;28;20184;-70
2023/10/15 04:21:40;;;;;;;7.03;5.30;;;8.20;99.90;;;;;;5029168;28;20180;-69
2023/10/15 04:24:09;;;;;;;8.33;5.27;;;8.10;99.90;;;;;;5013022;28;20184;-70
2023/10/15 04:26:40;;;;;;;5.97;5.37;;;8.00;99.90;;;;;;5024452;28;20207;-70
2023/10/15 04:29:16;;;;;;;10.83;5.20;;;8.00;99.90;;;;;;5011325;28;20177;-69
2023/10/15 04:32:09;;;;;;;6.83;5.67;;;7.90;99.90;;;;;;5011067;28;20258;-69
2023/10/15 04:34:36;;;;;;;7.77;5.43;;;7.90;99.90;;;;;;5033604;28;20176;-71
2023/10/15 04:37:16;;;;;;;8.83;4.90;;;7.90;99.90;;;;;;5034291;28;20175;-71
2023/10/15 04:39:55;;;;;;;8.73;5.50;;;7.90;99.90;;;;;;5028078;28;20204;-72
2023/10/15 04:42:21;;;;;;;9.60;4.70;;;7.90;99.90;;;;;;5028316;28;20542;-71
2023/10/15 04:44:50;;;;;;;9.83;5.87;;;7.90;99.90;;;;;;5032262;28;20198;-72
2023/10/15 04:47:30;;;;;;;6.07;5.10;;;7.90;99.90;;;;;;5024981;28;20295;-72
2023/10/15 04:49:57;;;;;;;5.83;5.13;;;7.80;99.90;;;;;;5027534;28;20290;-71
2023/10/15 04:52:24;;;;;;;8.87;5.13;;;7.80;99.90;;;;;;5032168;28;20180;-71
2023/10/15 04:54:50;;;;;;;6.17;4.67;;;7.80;99.90;;;;;;5028804;28;20706;-71
2023/10/15 04:57:16;;;;;;;7.23;5.33;;;7.80;99.90;;;;;;5018784;28;20175;-72
2023/10/15 04:59:42;;;;;;;6.73;4.77;;;7.80;99.90;;;;;;5045748;28;20215;-72
2023/10/15 05:02:08;;;;;;;5.83;5.10;;;7.80;99.90;;;;;;5054065;28;20573;-71
2023/10/15 05:04:34;;;;;;;8.00;5.10;;;7.70;99.90;;;;;;5034665;28;20178;-71
2023/10/15 05:07:00;;;;;;;7.90;4.87;;;7.70;99.90;;;;;;5033778;28;20206;-72
2023/10/15 05:09:31;;;;;;;6.27;4.83;;;7.70;99.90;;;;;;5033800;28;20570;-71
2023/10/15 05:11:57;;;;;;;9.30;5.67;;;7.80;99.90;;;;;;5034188;28;20259;-71
2023/10/15 05:14:23;;;;;;;5.80;5.07;;;7.70;99.90;;;;;;5033658;28;20163;-71
2023/10/15 05:16:49;;;;;;;6.10;5.60;;;7.70;99.90;;;;;;5053511;28;20270;-70
2023/10/15 05:19:17;;;;;;;10.80;5.00;;;7.70;99.90;;;;;;5053631;28;20175;-72
2023/10/15 05:21:46;;;;;;;9.13;5.20;;;7.70;99.90;;;;;;5053392;28;20200;-71
2023/10/15 05:24:18;;;;;;;5.37;4.70;;;7.60;99.90;;;;;;5053339;28;20175;-72
2023/10/15 05:26:46;;;;;;;7.67;5.30;;;7.60;99.90;;;;;;5051684;28;20199;-71
2023/10/15 05:29:13;;;;;;;5.27;4.83;;;7.60;99.90;;;;;;5053493;28;20244;-71
2023/10/15 05:31:40;;;;;;;7.10;5.00;;;7.60;99.90;;;;;;5054059;28;20262;-71
2023/10/15 05:34:07;;;;;;;8.30;4.73;;;7.60;99.90;;;;;;5019754;28;20652;-71
2023/10/15 05:36:33;;;;;;;6.73;4.80;;;7.70;99.90;;;;;;5033507;28;20207;-71
2023/10/15 05:38:59;;;;;;;4.53;4.20;;;7.60;99.90;;;;;;5016556;28;20544;-71
2023/10/15 05:41:26;;;;;;;12.63;4.90;;;7.60;99.90;;;;;;5033381;28;20195;-70
2023/10/15 05:43:53;;;;;;;4.73;4.33;;;7.60;99.90;;;;;;5031607;28;20179;-71
2023/10/15 05:46:19;;;;;;;5.07;4.67;;;7.60;99.90;;;;;;5032349;28;20282;-71
2023/10/15 05:48:44;;;;;;;8.57;4.90;;;7.70;99.90;;;;;;5033466;28;20179;-71
2023/10/15 05:51:10;;;;;;;7.37;5.20;;;7.70;99.90;;;;;;5029674;28;20527;-71
2023/10/15 05:53:36;;;;;;;11.77;5.80;;;7.70;99.90;;;;;;5011594;28;20176;-71
2023/10/15 05:56:02;;;;;;;7.47;5.33;;;7.70;99.90;;;;;;5014564;28;20721;-72
2023/10/15 05:58:27;;;;;;;11.33;6.00;;;7.60;99.90;;;;;;5026664;28;20190;-72
2023/10/15 06:00:53;;;;;;;6.50;5.90;;;7.60;99.90;;;;;;5032336;28;20198;-71
2023/10/15 06:03:19;;;;;;;8.27;5.73;;;7.70;99.90;;;;;;5032309;28;20175;-72
2023/10/15 06:05:44;;;;;;;8.40;6.10;;;7.60;99.90;;;;;;5024809;28;20459;-72
2023/10/15 06:08:10;;;;;;;6.60;6.07;;;7.70;99.90;;;;;;5022537;28;20315;-72
2023/10/15 06:10:36;;;;;;;8.00;6.80;;;7.70;99.90;;;;;;5012698;28;20555;-72
2023/10/15 06:13:01;;;;;;;9.37;6.43;;;7.70;99.90;;;;;;5011423;28;20186;-72
2023/10/15 06:15:28;;;;;;;7.20;6.43;;;7.70;99.90;;;;;;5016327;28;20622;-73
2023/10/15 06:17:54;;;;;;;7.27;6.67;;;7.70;99.90;;;;;;5032050;28;20187;-72
2023/10/15 06:20:20;;;;;;;7.37;6.73;;;7.70;99.90;;;;;;5030737;28;20233;-72
2023/10/15 06:22:47;;;;;;;9.73;6.47;;;7.70;99.90;;;;;;5032049;28;20210;-73
2023/10/15 06:25:17;;;;;;;8.80;6.83;;;7.70;99.90;;;;;;5026275;28;20676;-72
2023/10/15 06:27:43;;;;;;;5.80;5.30;;;7.70;99.90;;;;;;5012100;28;20679;-72
2023/10/15 06:30:16;;;;;;;6.47;5.80;;;7.70;99.90;;;;;;5012349;28;20228;-72
2023/10/15 06:32:48;;;;;;;7.07;5.43;;;7.60;99.90;;;;;;5012305;28;20214;-73
2023/10/15 06:35:18;;;;;;;6.83;6.13;;;7.60;99.90;;;;;;5029548;28;20188;-72
2023/10/15 06:37:45;;;;;;;5.67;5.10;;;7.70;99.90;;;;;;5028378;28;20184;-72
2023/10/15 06:40:11;;;;;;;5.53;5.03;;;7.60;99.90;;;;;;5013211;28;20211;-72
2023/10/15 06:42:37;;;;;;;5.20;4.70;;;7.60;99.90;;;;;;5011896;28;20271;-72
2023/10/15 06:45:02;;;;;;;5.20;4.70;;;7.60;99.90;;;;;;5015399;28;20272;-72
2023/10/15 06:47:29;;;;;;;5.30;4.90;;;7.50;99.90;;;;;;5022561;28;20286;-72
2023/10/15 06:49:55;;;;;;;6.40;4.80;;;7.50;99.90;;;;;;5042113;28;20205;-72
2023/10/15 06:52:21;;;;;;;6.70;4.70;;;7.40;99.90;;;;;;5013112;28;20577;-72
2023/10/15 06:54:47;;;;;;;5.40;4.90;;;7.40;99.90;;;;;;5013380;28;20314;-72
2023/10/15 06:57:16;;;;;;;5.90;5.30;;;7.30;99.90;;;;;;5012440;28;20188;-73
2023/10/15 06:59:42;;;;;;;6.20;4.40;;;7.30;99.90;;;;;;5011555;28;20204;-72
2023/10/15 07:02:08;;;;;;;6.20;5.00;;;7.40;99.90;;;;;;5012117;28;20179;-73
2023/10/15 07:04:34;;;;;;;5.07;4.70;;;7.50;99.90;;;;;;5011471;28;20179;-72
2023/10/15 07:06:59;;;;;;;5.20;4.87;;;7.60;99.90;;;;;;5011787;28;20208;-72
2023/10/15 07:09:27;;;;;;;5.00;4.50;;;7.70;99.90;;;;;;5011673;28;20564;-72
2023/10/15 07:11:53;;;;;;;5.03;4.40;;;7.70;99.90;;;;;;5029984;28;20208;-72
2023/10/15 07:14:20;;;;;;;5.13;4.83;;;7.70;99.90;;;;;;5031289;28;20168;-72
2023/10/15 07:16:45;;;;;;;5.23;4.73;;;7.70;99.90;;;;;;5028307;28;20344;-72
2023/10/15 07:19:11;;;;;;;7.50;5.30;;;7.70;99.90;;;;;;5029290;28;20702;-72
2023/10/15 07:21:37;;;;;;;5.60;5.10;;;7.70;99.90;;;;;;5030937;28;20187;-72
2023/10/15 07:24:05;;;;;;;8.07;5.43;;;7.80;99.90;;;;;;5030482;28;20642;-72
2023/10/15 07:26:30;;;;;;;5.83;5.30;;;7.80;99.90;;;;;;5030738;28;20608;-72
2023/10/15 07:28:56;;;;;;;6.47;4.57;;;7.80;99.90;;;;;;5031102;28;20183;-73
2023/10/15 07:31:22;;;;;;;5.63;5.17;;;7.80;99.90;;;;;;5031121;28;20191;-72
2023/10/15 07:33:48;;;;;;;11.23;5.67;;;7.80;99.90;;;;;;5030284;28;20516;-72
2023/10/15 07:36:13;;;;;;;6.17;5.57;;;7.70;99.90;;;;;;5030910;28;20587;-72
2023/10/15 07:38:39;;;;;;;6.63;6.03;;;7.70;99.90;;;;;;5030944;28;20182;-72
2023/10/15 07:41:06;;;;;;;7.33;6.57;;;7.90;99.90;;;;;;5030853;28;20210;-71
2023/10/15 07:43:31;;;;;;;8.33;6.27;;;8.10;99.90;;;;;;5030331;28;20582;-71
2023/10/15 07:45:59;;;;;;;6.80;5.50;;;8.20;99.90;;;;;;5030581;28;20167;-71
2023/10/15 07:48:24;;;;;;;8.00;6.07;;;8.40;99.90;;;;;;5011227;28;20219;-72
2023/10/15 07:50:50;;;;;;;8.20;6.77;;;8.50;99.90;;;;;;5011146;28;20263;-72
2023/10/15 07:53:16;;;;;;;11.93;6.03;;;8.60;99.90;;;;;;5011389;28;20168;-72
2023/10/15 07:55:42;;;;;;;6.17;5.67;;;8.60;99.90;;;;;;5010498;28;20678;-72
2023/10/15 07:58:09;;;;;;;6.90;6.27;;;8.70;99.90;;;;;;5011211;28;20251;-72
2023/10/15 08:00:35;;;;;;;6.57;5.93;;;8.70;99.90;;;;;;5010975;28;20184;-72
2023/10/15 08:03:01;;;;;;;6.30;5.70;;;8.70;99.90;;;;;;5011196;28;20187;-72
2023/10/15 08:05:34;;;;;;;7.43;6.50;;;8.70;99.90;;;;;;5010704;28;20180;-72
2023/10/15 08:08:00;;;;;;;6.40;5.90;;;8.80;99.90;;;;;;5011752;28;20357;-71
2023/10/15 08:10:32;;;;;;;8.00;6.00;;;8.80;99.90;;;;;;5014995;28;20192;-71
2023/10/15 08:12:58;;;;;;;12.60;9.30;;;8.80;99.90;;;;;;5014843;28;20179;-72
2023/10/15 08:15:24;;;;;;;6.80;6.20;;;8.70;99.90;;;;;;5014759;28;20168;-72
2023/10/15 08:17:50;;;;;;;7.00;5.60;;;8.80;99.90;;;;;;5014159;28;20667;-73
2023/10/15 08:20:16;;;;;;;8.63;5.73;;;8.80;99.90;;;;;;5030202;28;20203;-72
2023/10/15 08:22:44;;;;;;;7.23;5.57;;;8.90;99.90;;;;;;5034280;28;20217;-72
2023/10/15 08:25:13;;;;;;;7.10;5.23;;;8.90;99.90;;;;;;5034474;28;20171;-71
2023/10/15 08:27:44;;;;;;;9.97;5.73;;;8.90;99.90;;;;;;5034065;28;20197;-72
2023/10/15 08:30:12;;;;;;;7.00;5.30;;;8.90;99.90;;;;;;5033038;28;20227;-72
2023/10/15 08:32:41;;;;;;;5.73;5.13;;;9.00;99.90;;;;;;5031853;28;20176;-72
2023/10/15 08:35:10;;;;;;;5.37;4.90;;;9.00;99.90;;;;;;5014524;28;20180;-72
2023/10/15 08:37:39;;;;;;;9.93;6.17;;;9.00;99.90;;;;;;5028204;28;20590;-72
2023/10/15 08:40:05;;;;;;;5.80;5.33;;;9.00;99.90;;;;;;5033619;28;20216;-71
2023/10/15 08:42:49;;;;;;;8.10;6.30;;;9.00;99.90;;;;;;5033966;28;20188;-71
2023/10/15 08:45:21;;;;;;;7.83;5.77;;;9.00;99.90;;;;;;5033186;28;20188;-70
2023/10/15 08:47:47;;;;;;;5.97;5.37;;;9.00;99.90;;;;;;5033603;28;20214;-70
2023/10/15 08:50:16;;;;;;;5.17;4.77;;;9.00;99.90;;;;;;5032265;28;20258;-71
2023/10/15 08:52:44;;;;;;;7.23;5.40;;;8.90;99.90;;;;;;5034004;28;20179;-71
2023/10/15 08:55:11;;;;;;;9.63;5.40;;;8.90;99.90;;;;;;5032695;28;20220;-72
2023/10/15 08:57:37;;;;;;;11.37;5.50;;;8.90;99.90;;;;;;5033794;28;20548;-71
2023/10/15 09:00:05;;;;;;;7.40;5.60;;;8.90;99.90;;;;;;5033773;28;20203;-71
2023/10/15 09:02:31;;;;;;;6.13;5.40;;;9.00;99.90;;;;;;5033412;28;20277;-71
2023/10/15 09:04:57;;;;;;;6.53;5.83;;;9.10;99.90;;;;;;5031835;28;20186;-71
2023/10/15 09:07:23;;;;;;;5.97;5.27;;;9.10;99.90;;;;;;5032297;28;20207;-70
2023/10/15 09:09:49;;;;;;;7.07;5.80;;;9.20;99.90;;;;;;5033315;28;20275;-72
2023/10/15 09:12:15;;;;;;;8.10;6.10;;;9.30;99.90;;;;;;5033551;28;20258;-72
2023/10/15 09:14:43;;;;;;;5.83;5.33;;;9.30;99.90;;;;;;5031906;28;20232;-70
2023/10/15 09:17:10;;;;;;;7.10;6.10;;;9.30;99.90;;;;;;5033452;28;20178;-72
2023/10/15 09:19:39;;;;;;;6.60;4.93;;;9.50;99.90;;;;;;5033019;28;20727;-71
2023/10/15 09:22:06;;;;;;;6.27;4.97;;;9.50;99.90;;;;;;5017333;28;20188;-71
2023/10/15 09:24:33;;;;;;;5.53;4.57;;;9.40;99.90;;;;;;5032551;28;20270;-71
2023/10/15 09:26:59;;;;;;;7.07;4.87;;;9.40;99.90;;;;;;5033255;28;20207;-72
2023/10/15 09:29:24;;;;;;;7.87;5.77;;;9.50;99.90;;;;;;5020180;28;20557;-71
2023/10/15 09:31:56;;;;;;;7.87;5.27;;;9.50;99.90;;;;;;5013324;28;20211;-70
2023/10/15 09:34:22;;;;;;;5.37;4.87;;;9.50;99.90;;;;;;5013309;28;20267;-71
2023/10/15 09:36:49;;;;;;;5.87;4.80;;;9.60;99.90;;;;;;5013450;28;20263;-71
2023/10/15 09:39:15;;;;;;;6.27;4.90;;;9.60;99.90;;;;;;5013128;28;20644;-69
2023/10/15 09:41:41;;;;;;;17.60;11.37;;;9.50;99.90;;;;;;5011574;28;20214;-70
2023/10/15 09:44:14;;;;;;;9.60;8.60;;;9.50;99.90;;;;;;5027141;28;20215;-70
2023/10/15 09:46:43;;;;;;;63.10;38.53;;;9.40;99.90;;;;;;5031855;28;20337;-69
2023/10/15 09:49:10;;;;;;;83.07;43.17;;;9.50;99.90;;;;;;5014698;28;20576;-70
2023/10/15 09:51:37;;;;;;;129.77;68.67;;;9.60;99.90;;;;;;5020442;28;20183;-74
2023/10/15 09:54:03;;;;;;;204.80;109.03;;;9.70;99.90;;;;;;5023703;28;20211;-70
2023/10/15 09:56:30;;;;;;;64.00;46.80;;;9.90;99.90;;;;;;5012854;28;20176;-73
2023/10/15 09:58:56;;;;;;;42.93;38.30;;;9.90;99.90;;;;;;5012936;28;20651;-69
2023/10/15 10:01:28;;;;;;;8.20;7.40;;;10.00;99.90;;;;;;5012933;28;20199;-70
2023/10/15 10:04:18;;;;;;;6.47;6.00;;;9.90;99.90;;;;;;5012468;28;20184;-70
2023/10/15 10:06:47;;;;;;;5.23;4.93;;;9.70;99.90;;;;;;5012669;28;20228;-71
2023/10/15 10:09:21;;;;;;;5.03;4.53;;;9.70;99.90;;;;;;5012607;28;20255;-70
2023/10/15 10:11:59;;;;;;;4.67;4.20;;;9.60;99.90;;;;;;5012473;28;20298;-71
2023/10/15 10:14:33;;;;;;;7.03;4.17;;;9.60;99.90;;;;;;5011218;28;20176;-72
2023/10/15 10:17:00;;;;;;;5.70;5.17;;;9.60;99.90;;;;;;5012841;28;20205;-71
2023/10/15 10:19:27;;;;;;;5.20;4.80;;;9.60;99.90;;;;;;5011965;28;20192;-72
2023/10/15 10:21:53;;;;;;;7.53;4.27;;;9.60;99.90;;;;;;5014497;28;20557;-72
2023/10/15 10:24:20;;;;;;;7.70;4.77;;;9.70;99.90;;;;;;5032023;28;20285;-71
2023/10/15 10:26:53;;;;;;;4.77;4.23;;;9.80;99.90;;;;;;5032004;28;20230;-70
2023/10/15 10:29:20;;;;;;;8.27;4.10;;;9.90;99.90;;;;;;5032221;28;20202;-71
2023/10/15 10:31:47;;;;;;;6.80;3.93;;;10.10;99.90;;;;;;5031328;28;20547;-72
2023/10/15 10:34:14;;;;;;;5.03;3.80;;;10.20;99.90;;;;;;5032046;28;20168;-72
2023/10/15 10:36:51;;;;;;;6.37;3.43;;;10.30;99.90;;;;;;5031761;28;20188;-71
2023/10/15 10:39:18;;;;;;;4.23;3.80;;;10.40;99.90;;;;;;5032449;28;20179;-72
2023/10/15 10:41:50;;;;;;;4.07;3.67;;;10.60;99.90;;;;;;5012751;28;20192;-72
2023/10/15 10:44:22;;;;;;;3.70;3.40;;;10.60;99.90;;;;;;5012116;28;20267;-70
2023/10/15 10:46:48;;;;;;;4.40;3.40;;;10.70;99.90;;;;;;5010614;28;20208;-71
2023/10/15 10:49:13;;;;;;;4.47;3.70;;;10.60;99.90;;;;;;5012149;28;20603;-72
2023/10/15 10:51:43;;;;;;;10.23;9.50;;;10.60;99.90;;;;;;5029007;28;20187;-71
2023/10/15 10:54:08;;;;;;;15.43;14.03;;;10.60;99.90;;;;;;5030220;28;20694;-72
2023/10/15 10:56:40;;;;;;;5.53;5.13;;;10.70;99.90;;;;;;5031698;28;20306;-71
2023/10/15 10:59:13;;;;;;;5.70;4.33;;;10.90;99.90;;;;;;5031703;28;20179;-71
2023/10/15 11:01:40;;;;;;;19.93;18.00;;;10.90;99.90;;;;;;5031458;28;20183;-70
2023/10/15 11:04:11;;;;;;;6.93;6.50;;;10.80;99.90;;;;;;5031416;28;20201;-72
2023/10/15 11:06:42;;;;;;;4.77;4.10;;;10.70;99.90;;;;;;5029908;28;20207;-72
2023/10/15 11:09:20;;;;;;;4.80;4.40;;;10.40;99.90;;;;;;5030459;28;20541;-72
2023/10/15 11:11:46;;;;;;;4.20;3.70;;;10.40;99.90;;;;;;5031159;28;20182;-72
2023/10/15 11:14:16;;;;;;;5.97;3.77;;;10.40;99.90;;;;;;5031190;28;20167;-71
2023/10/15 11:16:43;;;;;;;6.60;4.13;;;10.50;99.90;;;;;;5031184;28;20180;-71
2023/10/15 11:19:22;;;;;;;4.07;3.63;;;10.30;99.90;;;;;;5017772;28;20219;-71
2023/10/15 11:21:50;;;;;;;10.33;3.70;;;10.10;99.90;;;;;;5011266;28;20179;-71
2023/10/15 11:24:23;;;;;;;4.00;3.67;;;9.90;99.90;;;;;;5011301;28;20180;-71
2023/10/15 11:26:49;;;;;;;7.07;3.53;;;9.80;99.90;;;;;;5011087;28;20261;-73
2023/10/15 11:29:18;;;;;;;4.13;3.73;;;9.90;99.90;;;;;;5011475;28;20180;-71
2023/10/15 11:31:46;;;;;;;4.90;3.73;;;10.00;99.90;;;;;;5011273;28;20186;-72
2023/10/15 11:34:22;;;;;;;5.53;3.37;;;10.30;99.90;;;;;;5027172;28;20179;-71
2023/10/15 11:36:50;;;;;;;3.70;3.40;;;11.10;99.90;;;;;;5031039;28;20217;-72
2023/10/15 11:39:25;;;;;;;5.43;3.33;;;11.80;99.90;;;;;;5031154;28;20186;-71
2023/10/15 11:41:52;;;;;;;3.60;2.93;;;12.30;99.90;;;;;;5031098;28;20182;-70
2023/10/15 11:44:32;;;;;;;4.43;3.10;;;12.70;99.90;;;;;;5033481;28;20221;-71
2023/10/15 11:47:01;;;;;;;5.33;3.43;;;12.80;99.90;;;;;;5022960;28;20688;-71
2023/10/15 11:49:27;;;;;;;4.17;2.80;;;13.00;99.90;;;;;;5015376;28;20572;-70
2023/10/15 11:51:56;;;;;;;3.40;2.90;;;13.30;99.90;;;;;;5015134;28;20190;-71
2023/10/15 11:54:28;;;;;;;4.00;3.40;;;13.50;99.90;;;;;;5015084;28;20172;-71
2023/10/15 11:56:54;;;;;;;4.60;3.23;;;13.60;99.90;;;;;;5014724;28;20180;-70
2023/10/15 11:59:21;;;;;;;6.03;3.93;;;13.90;99.90;;;;;;5015436;28;20283;-72
2023/10/15 12:01:51;;;;;;;3.80;3.50;;;14.10;99.90;;;;;;5014840;28;20262;-70
2023/10/15 12:04:23;;;;;;;3.57;3.27;;;14.20;99.90;;;;;;5014855;28;20176;-70
2023/10/15 12:06:49;;;;;;;3.73;2.53;;;14.50;99.90;;;;;;5014899;28;20605;-73
2023/10/15 12:09:23;;;;;;;2.30;2.20;;;14.70;99.90;;;;;;5014917;28;20638;-70
2023/10/15 12:11:53;;;;;;;3.27;2.73;;;14.20;99.90;;;;;;5014746;28;20557;-71
2023/10/15 12:14:19;;;;;;;3.87;2.67;;;14.00;99.90;;;;;;5021715;28;20183;-70
2023/10/15 12:16:45;;;;;;;4.80;2.73;;;13.70;99.90;;;;;;5034250;28;20218;-71
2023/10/15 12:19:10;;;;;;;4.70;2.60;;;13.50;99.90;;;;;;5034607;28;20183;-71
2023/10/15 12:21:40;;;;;;;5.23;2.93;;;13.50;99.90;;;;;;5034646;28;20229;-71
2023/10/15 12:24:07;;;;;;;4.13;2.50;;;13.40;99.90;;;;;;5034336;28;20499;-70
2023/10/15 12:26:33;;;;;;;4.90;3.10;;;12.90;99.90;;;;;;5034052;28;20199;-72
2023/10/15 12:28:59;;;;;;;3.30;3.00;;;12.80;99.90;;;;;;5034325;28;20186;-71
2023/10/15 12:31:26;;;;;;;2.80;2.60;;;12.90;99.90;;;;;;5034544;28;20175;-72
2023/10/15 12:33:51;;;;;;;2.73;2.53;;;13.10;99.90;;;;;;5033605;28;20175;-71
2023/10/15 12:36:17;;;;;;;2.57;2.40;;;13.00;99.90;;;;;;5034462;28;20706;-70
2023/10/15 12:38:43;;;;;;;2.80;2.60;;;13.00;99.90;;;;;;5034275;28;20254;-71
2023/10/15 12:41:10;;;;;;;3.20;3.00;;;12.90;99.90;;;;;;5034330;28;20662;-70
2023/10/15 12:43:40;;;;;;;3.47;3.20;;;13.00;99.90;;;;;;5015543;28;20188;-69
2023/10/15 12:46:07;;;;;;;2.83;2.63;;;13.40;99.90;;;;;;5014409;28;20291;-70
2023/10/15 12:48:32;;;;;;;2.77;2.57;;;14.00;99.90;;;;;;5014232;28;20212;-71
2023/10/15 12:50:58;;;;;;;4.47;3.17;;;14.10;99.90;;;;;;5014390;28;20587;-71
2023/10/15 12:53:25;;;;;;;4.77;2.40;;;13.90;99.90;;;;;;5013290;28;20176;-70
2023/10/15 12:55:51;;;;;;;5.07;2.43;;;14.20;99.90;;;;;;5012326;28;20238;-71
2023/10/15 12:58:17;;;;;;;2.70;2.50;;;14.30;99.90;;;;;;5014287;28;20255;-71
2023/10/15 13:00:43;;;;;;;3.63;2.40;;;14.30;99.90;;;;;;5014085;28;20196;-71
2023/10/15 13:03:10;;;;;;;2.90;2.60;;;14.40;99.90;;;;;;5014082;28;20258;-72
2023/10/15 13:05:36;;;;;;;2.80;2.60;;;14.40;99.90;;;;;;5013786;28;20206;-71
2023/10/15 13:08:03;;;;;;;2.93;2.60;;;14.30;99.90;;;;;;5015923;28;20215;-72
2023/10/15 13:10:29;;;;;;;3.07;2.77;;;14.10;99.90;;;;;;5033644;28;20196;-71
2023/10/15 13:12:55;;;;;;;3.07;2.80;;;14.10;99.90;;;;;;5033565;28;20178;-71
2023/10/15 13:15:21;;;;;;;3.20;2.90;;;14.10;99.90;;;;;;5033452;28;20175;-71
2023/10/15 13:17:49;;;;;;;3.00;2.70;;;14.10;99.90;;;;;;5032779;28;20203;-73
2023/10/15 13:20:17;;;;;;;2.97;2.57;;;13.80;99.90;;;;;;5033592;28;20198;-70
2023/10/15 13:22:44;;;;;;;2.53;2.40;;;13.80;99.90;;;;;;5032717;28;20210;-72